Time;durP1;ratioP1;P1;durP2;ratioP2;P2;SDS_P1;SDS_P2;PMS_P1;PMS_P2;Temp;Humidity;BMP_temperature;BMP_pressure;BME280_temperature;BME280_humidity;BME280_pressure;Samples;Min_cycle;Max_cycle;Signal;HPM_P1;HPM_P2
2022/10/15 00:00:36;;;;;;;2.63;2.00;;;15.40;99.90;;;;;;5071925;28;20617;-74
2022/10/15 00:03:01;;;;;;;6.20;2.30;;;15.40;99.90;;;;;;5090541;28;20188;-74
2022/10/15 00:05:27;;;;;;;2.70;2.03;;;15.50;99.90;;;;;;5089035;28;21130;-71
2022/10/15 00:07:53;;;;;;;3.00;2.10;;;15.50;99.90;;;;;;5086470;28;20225;-71
2022/10/15 00:10:19;;;;;;;3.80;2.27;;;15.50;99.90;;;;;;5090108;28;20196;-72
2022/10/15 00:12:45;;;;;;;5.30;2.10;;;15.40;99.90;;;;;;5086682;28;20841;-72
2022/10/15 00:15:10;;;;;;;4.30;2.70;;;15.50;99.90;;;;;;5083007;28;20164;-72
2022/10/15 00:17:37;;;;;;;5.67;3.00;;;15.50;99.90;;;;;;5087551;28;20429;-72
2022/10/15 00:20:08;;;;;;;8.53;2.80;;;15.50;99.90;;;;;;5089632;28;20705;-74
2022/10/15 00:22:34;;;;;;;3.57;2.77;;;15.50;99.90;;;;;;5086495;28;20437;-72
2022/10/15 00:25:00;;;;;;;2.93;2.60;;;15.50;99.90;;;;;;5070202;28;20422;-73
2022/10/15 00:27:26;;;;;;;4.00;2.40;;;15.50;99.90;;;;;;5085074;28;20559;-72
2022/10/15 00:29:51;;;;;;;4.57;2.93;;;15.60;99.90;;;;;;5089567;28;20548;-72
2022/10/15 00:32:17;;;;;;;5.03;2.53;;;15.60;99.90;;;;;;5087368;28;20282;-73
2022/10/15 00:34:42;;;;;;;4.80;2.77;;;15.60;99.90;;;;;;5089209;28;20264;-72
2022/10/15 00:37:08;;;;;;;4.00;2.40;;;15.60;99.90;;;;;;5086201;28;20172;-71
2022/10/15 00:39:35;;;;;;;3.27;2.40;;;15.60;99.90;;;;;;5084029;28;20179;-73
2022/10/15 00:42:00;;;;;;;5.57;2.37;;;15.60;99.90;;;;;;5081083;28;20186;-71
2022/10/15 00:44:28;;;;;;;2.57;2.10;;;15.90;99.90;;;;;;5088755;28;20792;-73
2022/10/15 00:47:18;;;;;;;3.80;2.30;;;15.70;99.90;;;;;;5094398;28;20329;-73
2022/10/15 00:50:06;;;;;;;3.23;2.43;;;15.80;99.90;;;;;;5081549;28;20445;-72
2022/10/15 00:52:50;;;;;;;4.20;2.67;;;15.80;99.90;;;;;;5085842;28;20476;-71
2022/10/15 00:55:28;;;;;;;4.03;2.50;;;15.80;99.90;;;;;;5069717;28;20410;-72
2022/10/15 00:57:56;;;;;;;3.70;2.33;;;15.80;99.90;;;;;;5087941;28;20410;-72
2022/10/15 01:00:21;;;;;;;3.00;2.23;;;15.80;99.90;;;;;;5074825;28;20435;-74
2022/10/15 01:02:47;;;;;;;2.93;2.20;;;15.80;99.90;;;;;;5087517;28;20426;-72
2022/10/15 01:05:15;;;;;;;4.17;1.87;;;15.80;99.90;;;;;;5086172;28;20225;-72
2022/10/15 01:07:40;;;;;;;2.93;1.90;;;15.90;99.90;;;;;;5088737;28;20176;-72
2022/10/15 01:10:07;;;;;;;5.90;2.07;;;16.10;99.90;;;;;;5089395;28;20793;-72
2022/10/15 01:13:01;;;;;;;2.50;1.70;;;15.90;99.90;;;;;;5077798;28;20196;-72
2022/10/15 01:15:36;;;;;;;1.97;1.80;;;16.00;99.90;;;;;;5085191;28;20486;-72
2022/10/15 01:18:07;;;;;;;2.80;1.50;;;16.00;99.90;;;;;;5083446;28;20421;-74
2022/10/15 01:21:18;;;;;;;3.90;1.93;;;16.00;99.90;;;;;;5085886;28;20425;-73
2022/10/15 01:24:37;;;;;;;2.97;1.60;;;16.00;99.90;;;;;;5086619;28;20492;-72
2022/10/15 01:27:34;;;;;;;4.13;1.60;;;16.00;99.90;;;;;;5060967;28;20791;-72
2022/10/15 01:30:20;;;;;;;2.00;1.60;;;16.00;99.90;;;;;;5072851;28;20462;-71
2022/10/15 01:32:53;;;;;;;2.70;1.40;;;16.10;99.90;;;;;;5088608;28;20417;-72
2022/10/15 01:35:40;;;;;;;1.90;1.40;;;16.10;99.90;;;;;;5084128;28;20483;-73
2022/10/15 01:38:24;;;;;;;10.90;1.97;;;16.10;99.90;;;;;;5074887;28;20421;-72
2022/10/15 01:40:56;;;;;;;2.33;1.20;;;16.30;99.90;;;;;;5088286;28;20452;-72
2022/10/15 01:43:34;;;;;;;5.20;1.30;;;16.10;99.90;;;;;;5081808;28;20949;-73
2022/10/15 01:46:05;;;;;;;2.43;1.40;;;16.10;99.90;;;;;;5084470;28;20510;-73
2022/10/15 01:48:34;;;;;;;1.80;1.33;;;16.10;99.90;;;;;;5087428;28;20434;-73
2022/10/15 01:51:03;;;;;;;1.97;1.40;;;16.20;99.90;;;;;;5086724;28;20468;-72
2022/10/15 01:53:33;;;;;;;1.40;1.13;;;16.20;99.90;;;;;;5088309;28;20418;-73
2022/10/15 01:56:03;;;;;;;1.23;1.13;;;16.20;99.90;;;;;;5085487;28;20416;-72
2022/10/15 01:58:30;;;;;;;2.90;1.27;;;16.20;99.90;;;;;;5077571;28;20496;-72
2022/10/15 02:00:57;;;;;;;2.30;1.27;;;16.20;99.90;;;;;;5067713;28;20967;-71
2022/10/15 02:03:23;;;;;;;7.73;1.20;;;16.20;99.90;;;;;;5079960;28;20414;-72
2022/10/15 02:06:08;;;;;;;2.10;1.90;;;16.20;99.90;;;;;;5081778;28;20422;-72
2022/10/15 02:09:12;;;;;;;1.40;1.13;;;16.20;99.90;;;;;;5086475;28;20437;-71
2022/10/15 02:12:22;;;;;;;1.50;1.03;;;16.20;99.90;;;;;;5084036;28;20468;-73
2022/10/15 02:14:53;;;;;;;1.40;1.00;;;16.20;99.90;;;;;;5074935;28;20793;-71
2022/10/15 02:17:27;;;;;;;10.10;1.10;;;16.30;99.90;;;;;;5076958;28;20426;-73
2022/10/15 02:20:23;;;;;;;1.50;1.00;;;16.30;99.90;;;;;;5091713;28;20926;-72
2022/10/15 02:22:57;;;;;;;1.40;1.20;;;16.30;99.90;;;;;;5088400;28;20430;-72
2022/10/15 02:25:25;;;;;;;9.50;1.27;;;16.30;99.90;;;;;;5090188;28;20425;-72
2022/10/15 02:27:54;;;;;;;1.50;1.20;;;16.30;99.90;;;;;;5092134;28;20489;-72
2022/10/15 02:30:20;;;;;;;2.80;1.30;;;16.30;99.90;;;;;;5089006;28;20961;-74
2022/10/15 02:32:51;;;;;;;1.33;0.90;;;16.30;99.90;;;;;;5087988;28;20960;-73
2022/10/15 02:35:19;;;;;;;1.83;1.10;;;16.40;99.90;;;;;;5091521;28;20437;-72
2022/10/15 02:37:48;;;;;;;2.37;1.20;;;16.30;99.90;;;;;;5088436;28;20907;-73
2022/10/15 02:40:14;;;;;;;1.67;1.17;;;16.30;99.90;;;;;;5089606;28;20432;-72
2022/10/15 02:42:39;;;;;;;1.50;1.00;;;16.30;99.90;;;;;;5086711;28;20437;-71
2022/10/15 02:45:05;;;;;;;1.67;1.20;;;16.40;99.90;;;;;;5090810;28;20540;-73
2022/10/15 02:47:31;;;;;;;3.80;1.20;;;16.40;99.90;;;;;;5088381;28;20658;-72
2022/10/15 02:49:57;;;;;;;1.60;1.10;;;16.40;99.90;;;;;;5076002;28;20444;-74
2022/10/15 02:52:22;;;;;;;1.23;1.00;;;16.40;99.90;;;;;;5084762;28;20230;-73
2022/10/15 02:54:48;;;;;;;2.50;1.00;;;16.30;99.90;;;;;;5089785;28;20666;-73
2022/10/15 02:57:13;;;;;;;1.03;0.93;;;16.40;99.90;;;;;;5087500;28;20291;-72
2022/10/15 02:59:39;;;;;;;1.97;1.10;;;16.40;99.90;;;;;;5091905;28;20271;-72
2022/10/15 03:02:05;;;;;;;4.63;1.10;;;16.40;99.90;;;;;;5089279;28;20203;-73
2022/10/15 03:04:30;;;;;;;2.23;0.90;;;16.40;99.90;;;;;;5084663;28;20191;-72
2022/10/15 03:06:56;;;;;;;3.87;1.27;;;16.40;99.90;;;;;;5090194;28;20188;-74
2022/10/15 03:09:21;;;;;;;1.00;0.90;;;16.40;99.90;;;;;;5089144;28;20179;-72
2022/10/15 03:11:47;;;;;;;4.70;1.10;;;16.40;99.90;;;;;;5091935;28;20211;-72
2022/10/15 03:14:13;;;;;;;4.00;1.10;;;16.40;99.90;;;;;;5090059;28;20221;-72
2022/10/15 03:16:38;;;;;;;1.20;1.00;;;16.40;99.90;;;;;;5096529;28;20661;-74
2022/10/15 03:19:04;;;;;;;2.23;1.00;;;16.40;99.90;;;;;;5096506;28;20180;-72
2022/10/15 03:21:29;;;;;;;2.63;1.00;;;16.40;99.90;;;;;;5085231;28;20269;-72
2022/10/15 03:23:57;;;;;;;1.10;1.00;;;16.70;99.90;;;;;;5090916;28;20184;-72
2022/10/15 03:26:22;;;;;;;4.33;0.90;;;16.40;99.90;;;;;;5087390;28;20237;-71
2022/10/15 03:28:48;;;;;;;2.97;1.00;;;16.50;99.90;;;;;;5087738;28;20438;-72
2022/10/15 03:31:13;;;;;;;1.97;1.20;;;16.50;99.90;;;;;;5090698;28;20263;-72
2022/10/15 03:33:39;;;;;;;3.23;1.10;;;16.50;99.90;;;;;;5083033;28;20190;-72
2022/10/15 03:36:05;;;;;;;2.40;1.10;;;16.50;99.90;;;;;;5090034;28;20187;-72
2022/10/15 03:38:31;;;;;;;1.20;1.10;;;16.50;99.90;;;;;;5083582;28;20650;-73
2022/10/15 03:40:57;;;;;;;3.77;1.10;;;16.50;99.90;;;;;;5090345;28;20497;-74
2022/10/15 03:43:24;;;;;;;3.10;1.20;;;16.50;99.90;;;;;;5087755;28;20225;-72
2022/10/15 03:45:50;;;;;;;1.70;1.20;;;16.50;99.90;;;;;;5087215;28;20180;-72
2022/10/15 03:48:16;;;;;;;1.50;1.20;;;16.50;99.90;;;;;;5091063;28;20564;-71
2022/10/15 03:50:41;;;;;;;2.47;1.20;;;16.50;99.90;;;;;;5083687;28;20469;-73
2022/10/15 03:53:07;;;;;;;5.10;1.20;;;16.60;99.90;;;;;;5086563;28;20542;-73
2022/10/15 03:55:32;;;;;;;3.53;1.23;;;16.50;99.90;;;;;;5089048;28;20202;-73
2022/10/15 03:57:58;;;;;;;9.03;1.20;;;16.50;99.90;;;;;;5087217;28;20168;-74
2022/10/15 04:00:24;;;;;;;3.10;1.30;;;16.50;99.90;;;;;;5070841;28;20261;-72
2022/10/15 04:02:49;;;;;;;1.67;1.20;;;16.50;99.90;;;;;;5083335;28;20575;-76
2022/10/15 04:05:15;;;;;;;1.43;1.10;;;16.50;99.90;;;;;;5072500;28;20172;-72
2022/10/15 04:07:41;;;;;;;3.20;1.43;;;16.60;99.90;;;;;;5078325;28;20188;-72
2022/10/15 04:10:07;;;;;;;3.80;1.30;;;16.60;99.90;;;;;;5084573;28;20848;-72
2022/10/15 04:12:33;;;;;;;1.40;1.23;;;16.50;99.90;;;;;;5090221;28;20489;-72
2022/10/15 04:14:59;;;;;;;2.13;1.40;;;16.60;99.90;;;;;;5080972;28;20716;-71
2022/10/15 04:17:24;;;;;;;1.40;1.07;;;16.60;99.90;;;;;;5079673;28;20208;-72
2022/10/15 04:19:50;;;;;;;5.53;1.90;;;16.60;99.90;;;;;;5074889;28;20197;-71
2022/10/15 04:22:15;;;;;;;4.40;1.60;;;16.60;99.90;;;;;;5086109;28;20229;-73
2022/10/15 04:24:41;;;;;;;8.23;1.60;;;16.60;99.90;;;;;;5084200;28;20180;-72
2022/10/15 04:27:07;;;;;;;3.40;1.33;;;16.60;99.90;;;;;;5089272;28;20187;-73
2022/10/15 04:29:32;;;;;;;2.60;1.30;;;16.70;99.90;;;;;;5088481;28;20216;-73
2022/10/15 04:31:58;;;;;;;2.07;1.30;;;16.70;99.90;;;;;;5073148;28;20582;-72
2022/10/15 04:34:24;;;;;;;7.47;1.37;;;16.60;99.90;;;;;;5077914;28;20167;-72
2022/10/15 04:36:50;;;;;;;4.00;1.60;;;17.50;99.90;;;;;;5089902;28;20203;-71
2022/10/15 04:39:16;;;;;;;1.97;1.33;;;16.60;99.90;;;;;;5086964;28;20206;-71
2022/10/15 04:41:42;;;;;;;1.87;1.40;;;16.60;99.90;;;;;;5084615;28;20285;-72
2022/10/15 04:44:07;;;;;;;1.53;1.40;;;16.60;99.90;;;;;;5084249;28;20464;-74
2022/10/15 04:46:33;;;;;;;2.07;1.30;;;16.70;99.90;;;;;;5089891;28;20180;-72
2022/10/15 04:48:58;;;;;;;1.50;1.30;;;16.70;99.90;;;;;;5080762;28;20184;-71
2022/10/15 04:51:25;;;;;;;2.53;1.50;;;16.70;99.90;;;;;;5086821;28;20199;-72
2022/10/15 04:53:51;;;;;;;1.87;1.30;;;16.70;99.90;;;;;;5084810;28;20630;-71
2022/10/15 04:56:18;;;;;;;2.77;1.43;;;16.70;99.90;;;;;;5084004;28;20410;-71
2022/10/15 04:58:45;;;;;;;1.83;1.67;;;16.70;99.90;;;;;;5086914;28;20183;-73
2022/10/15 05:01:13;;;;;;;4.17;2.00;;;16.80;99.90;;;;;;5089805;28;20511;-72
2022/10/15 05:03:41;;;;;;;5.40;2.23;;;16.80;99.90;;;;;;5082184;28;20434;-72
2022/10/15 05:06:18;;;;;;;6.90;3.17;;;16.80;99.90;;;;;;5088786;28;20985;-72
2022/10/15 05:08:45;;;;;;;4.37;3.10;;;16.80;99.90;;;;;;5086643;28;20429;-72
2022/10/15 05:11:26;;;;;;;7.53;3.83;;;16.70;99.90;;;;;;5089057;28;20511;-75
2022/10/15 05:13:54;;;;;;;3.70;2.93;;;16.70;99.90;;;;;;5077183;28;20431;-71
2022/10/15 05:16:26;;;;;;;7.67;3.10;;;16.70;99.90;;;;;;5089591;28;20912;-72
2022/10/15 05:18:56;;;;;;;5.20;3.20;;;16.70;99.90;;;;;;5095767;28;20520;-74
2022/10/15 05:21:22;;;;;;;3.73;3.30;;;16.80;99.90;;;;;;5082938;28;20455;-72
2022/10/15 05:23:49;;;;;;;4.47;3.50;;;16.80;99.90;;;;;;5076297;28;20446;-74
2022/10/15 05:26:20;;;;;;;3.87;3.50;;;16.80;99.90;;;;;;5089091;28;20308;-71
2022/10/15 05:28:46;;;;;;;3.43;3.13;;;16.80;99.90;;;;;;5074235;28;20446;-72
2022/10/15 05:31:14;;;;;;;3.60;3.30;;;17.00;99.90;;;;;;5088442;28;20461;-72
2022/10/15 05:33:40;;;;;;;14.77;3.90;;;16.80;99.90;;;;;;5086166;28;20180;-74
2022/10/15 05:36:12;;;;;;;6.47;3.57;;;16.80;99.90;;;;;;5088509;28;20421;-74
2022/10/15 05:38:38;;;;;;;3.30;3.00;;;16.80;99.90;;;;;;5078050;28;20427;-71
2022/10/15 05:41:04;;;;;;;4.73;3.30;;;16.80;99.90;;;;;;5089066;28;20463;-72
2022/10/15 05:43:29;;;;;;;4.00;2.60;;;16.80;99.90;;;;;;5083442;28;20442;-72
2022/10/15 05:45:55;;;;;;;5.63;3.00;;;16.80;99.90;;;;;;5084046;28;20222;-72
2022/10/15 05:48:21;;;;;;;3.80;2.77;;;16.70;99.90;;;;;;5084453;28;20218;-72
2022/10/15 05:50:47;;;;;;;4.33;3.03;;;16.80;99.90;;;;;;5081686;28;20501;-74
2022/10/15 05:53:12;;;;;;;4.30;2.60;;;16.80;99.90;;;;;;5091205;28;20642;-71
2022/10/15 05:55:38;;;;;;;4.33;3.03;;;17.00;99.90;;;;;;5091610;28;20646;-72
2022/10/15 05:58:04;;;;;;;5.37;4.60;;;16.80;99.90;;;;;;5092544;28;20233;-72
2022/10/15 06:00:30;;;;;;;9.10;3.30;;;16.80;99.90;;;;;;5091905;28;20256;-73
2022/10/15 06:02:56;;;;;;;8.93;3.40;;;16.80;99.90;;;;;;5086477;28;20429;-72
2022/10/15 06:05:22;;;;;;;3.97;3.00;;;16.80;99.90;;;;;;5079305;28;20875;-73
2022/10/15 06:07:47;;;;;;;4.90;2.70;;;16.80;99.90;;;;;;5087328;28;20189;-74
2022/10/15 06:10:13;;;;;;;7.13;4.30;;;16.80;99.90;;;;;;5088267;28;20230;-72
2022/10/15 06:12:39;;;;;;;6.13;2.50;;;16.80;99.90;;;;;;5090014;28;20216;-71
2022/10/15 06:15:06;;;;;;;2.40;2.17;;;16.80;99.90;;;;;;5087291;28;20182;-72
2022/10/15 06:17:31;;;;;;;3.27;2.13;;;16.70;99.90;;;;;;5084955;28;20442;-73
2022/10/15 06:19:57;;;;;;;5.30;2.20;;;16.70;99.90;;;;;;5077399;28;20477;-73
2022/10/15 06:22:22;;;;;;;2.33;2.00;;;16.70;99.90;;;;;;5084882;28;20195;-74
2022/10/15 06:24:48;;;;;;;9.83;2.73;;;16.70;99.90;;;;;;5084368;28;20195;-72
2022/10/15 06:27:14;;;;;;;5.43;1.90;;;16.80;99.90;;;;;;5088230;28;20280;-72
2022/10/15 06:29:40;;;;;;;11.83;2.10;;;16.70;99.90;;;;;;5093020;28;20191;-72
2022/10/15 06:32:09;;;;;;;1.70;1.60;;;16.70;99.90;;;;;;5083820;28;20199;-73
2022/10/15 06:34:35;;;;;;;3.20;1.90;;;16.70;99.90;;;;;;5080779;28;20190;-71
2022/10/15 06:37:00;;;;;;;1.70;1.60;;;16.60;99.90;;;;;;5081616;28;20425;-71
2022/10/15 06:39:26;;;;;;;2.80;1.87;;;16.70;99.90;;;;;;5081847;28;20207;-73
2022/10/15 06:41:52;;;;;;;1.70;1.50;;;16.70;99.90;;;;;;5092361;28;20559;-72
2022/10/15 06:44:17;;;;;;;3.80;1.60;;;16.70;99.90;;;;;;5088223;28;20660;-71
2022/10/15 06:46:43;;;;;;;1.83;1.70;;;16.80;99.90;;;;;;5089790;28;20452;-72
2022/10/15 06:49:08;;;;;;;3.87;1.90;;;16.70;99.90;;;;;;5101619;28;20262;-72
2022/10/15 06:51:36;;;;;;;8.03;1.80;;;16.70;99.90;;;;;;5077724;28;20294;-71
2022/10/15 06:54:02;;;;;;;3.97;1.77;;;16.70;99.90;;;;;;5083099;28;20172;-71
2022/10/15 06:56:27;;;;;;;4.53;1.80;;;16.80;99.90;;;;;;5078205;28;20442;-71
2022/10/15 06:58:53;;;;;;;7.13;2.17;;;16.70;99.90;;;;;;5085823;28;20997;-72
2022/10/15 07:01:18;;;;;;;9.90;1.70;;;16.70;99.90;;;;;;5092594;28;20199;-74
2022/10/15 07:03:47;;;;;;;2.03;1.60;;;16.70;99.90;;;;;;5091903;28;20187;-72
2022/10/15 07:06:12;;;;;;;1.90;1.67;;;16.70;99.90;;;;;;5088445;28;20651;-72
2022/10/15 07:08:38;;;;;;;4.93;1.83;;;16.70;99.90;;;;;;5088609;28;20471;-77
2022/10/15 07:11:06;;;;;;;3.43;1.97;;;16.70;99.90;;;;;;5090532;28;20248;-78
2022/10/15 07:13:32;;;;;;;6.13;2.00;;;16.90;99.90;;;;;;5088169;28;20193;-77
2022/10/15 07:15:57;;;;;;;3.77;1.97;;;16.90;99.90;;;;;;5095784;28;20405;-73
2022/10/15 07:18:23;;;;;;;5.30;2.10;;;16.90;99.90;;;;;;5082171;28;20172;-73
2022/10/15 07:20:48;;;;;;;4.53;2.00;;;16.90;99.90;;;;;;5089535;28;20300;-73
2022/10/15 07:23:14;;;;;;;3.40;2.80;;;16.90;99.90;;;;;;5092121;28;20238;-73
2022/10/15 07:25:40;;;;;;;3.07;2.80;;;16.90;99.90;;;;;;5086597;28;20238;-73
2022/10/15 07:28:05;;;;;;;4.27;2.00;;;16.90;99.90;;;;;;5085185;28;20172;-73
2022/10/15 07:30:31;;;;;;;1.97;1.63;;;16.90;99.90;;;;;;5090365;28;20216;-74
2022/10/15 07:32:58;;;;;;;3.63;2.07;;;16.80;99.90;;;;;;5091457;28;20647;-74
2022/10/15 07:35:25;;;;;;;2.20;2.00;;;16.70;99.90;;;;;;5091023;28;20203;-74
2022/10/15 07:37:51;;;;;;;2.57;2.20;;;16.60;99.90;;;;;;5086330;28;20762;-76
2022/10/15 07:40:17;;;;;;;3.43;2.10;;;16.70;99.90;;;;;;5086114;28;20512;-73
2022/10/15 07:42:42;;;;;;;2.93;2.40;;;16.70;99.90;;;;;;5087813;28;20262;-73
2022/10/15 07:45:09;;;;;;;7.10;2.50;;;16.70;99.90;;;;;;5091523;28;20556;-73
2022/10/15 07:47:34;;;;;;;3.43;2.07;;;16.70;99.90;;;;;;5084015;28;20188;-73
2022/10/15 07:50:00;;;;;;;7.50;2.13;;;16.80;99.90;;;;;;5091613;28;20448;-76
2022/10/15 07:52:25;;;;;;;6.37;3.17;;;16.80;99.90;;;;;;5079210;28;20299;-75
2022/10/15 07:54:51;;;;;;;3.37;2.80;;;16.80;99.90;;;;;;5086613;28;20261;-74
2022/10/15 07:57:17;;;;;;;5.90;2.70;;;16.90;99.90;;;;;;5093884;28;20187;-74
2022/10/15 07:59:42;;;;;;;3.93;2.57;;;16.80;99.90;;;;;;5091766;28;20182;-74
2022/10/15 08:02:17;;;;;;;7.00;2.67;;;16.80;99.90;;;;;;5082247;28;20208;-73
2022/10/15 08:04:43;;;;;;;4.97;2.67;;;16.90;99.90;;;;;;5085501;28;20685;-75
2022/10/15 08:07:09;;;;;;;3.30;2.30;;;16.90;99.90;;;;;;5078119;28;20442;-74
2022/10/15 08:09:35;;;;;;;7.73;2.80;;;16.80;99.90;;;;;;5076471;28;20430;-74
2022/10/15 08:12:00;;;;;;;6.70;2.80;;;16.80;99.90;;;;;;5081198;28;20196;-76
2022/10/15 08:14:26;;;;;;;3.70;2.73;;;16.80;99.90;;;;;;5090347;28;20167;-76
2022/10/15 08:16:52;;;;;;;3.20;2.90;;;16.80;99.90;;;;;;5087920;28;20252;-74
2022/10/15 08:19:17;;;;;;;6.80;3.50;;;16.80;99.90;;;;;;5088246;28;20531;-74
2022/10/15 08:21:44;;;;;;;3.50;2.70;;;16.90;99.90;;;;;;5085774;28;20206;-77
2022/10/15 08:24:10;;;;;;;3.00;2.80;;;16.90;99.90;;;;;;5071496;28;20245;-77
2022/10/15 08:26:35;;;;;;;15.27;9.97;;;16.90;99.90;;;;;;5087758;28;20421;-76
2022/10/15 08:29:01;;;;;;;4.43;3.70;;;16.90;99.90;;;;;;5085302;28;20188;-75
2022/10/15 08:31:26;;;;;;;3.80;2.70;;;16.80;99.90;;;;;;5073451;28;20642;-74
2022/10/15 08:33:52;;;;;;;4.17;3.17;;;16.70;99.90;;;;;;5088010;28;20246;-76
2022/10/15 08:36:18;;;;;;;9.07;3.90;;;16.60;99.90;;;;;;5087058;28;20175;-76
2022/10/15 08:38:44;;;;;;;12.33;7.80;;;16.60;99.90;;;;;;5081311;28;20180;-75
2022/10/15 08:41:34;;;;;;;4.50;3.70;;;16.70;99.90;;;;;;5090678;28;20226;-75
2022/10/15 08:44:01;;;;;;;3.10;2.53;;;16.70;99.90;;;;;;5080527;28;20270;-74
2022/10/15 08:46:36;;;;;;;7.23;4.83;;;16.70;99.90;;;;;;5087248;28;20474;-75
2022/10/15 08:49:03;;;;;;;19.83;12.47;;;16.80;99.90;;;;;;5083414;28;20480;-75
2022/10/15 08:51:43;;;;;;;25.70;14.10;;;16.80;99.90;;;;;;5088326;28;20556;-75
2022/10/15 08:54:15;;;;;;;5.43;4.90;;;16.80;99.90;;;;;;5080006;28;20430;-76
2022/10/15 08:56:46;;;;;;;5.20;3.43;;;16.80;99.90;;;;;;5089255;28;20875;-75
2022/10/15 08:59:14;;;;;;;6.60;5.00;;;16.80;99.90;;;;;;5078735;28;20431;-76
2022/10/15 09:01:51;;;;;;;6.00;3.50;;;16.90;99.90;;;;;;5084543;28;21022;-76
2022/10/15 09:04:30;;;;;;;5.03;4.00;;;16.90;99.90;;;;;;5086358;28;20797;-79
2022/10/15 09:07:12;;;;;;;6.27;5.20;;;16.90;99.90;;;;;;5080939;28;20430;-76
2022/10/15 09:09:53;;;;;;;6.80;4.23;;;17.00;99.90;;;;;;5080901;28;20440;-76
2022/10/15 09:12:32;;;;;;;4.97;3.40;;;17.00;99.90;;;;;;5089464;28;20453;-77
2022/10/15 09:14:59;;;;;;;6.57;4.50;;;17.00;99.90;;;;;;5088887;28;20406;-75
2022/10/15 09:17:30;;;;;;;7.53;4.30;;;17.00;99.90;;;;;;5098394;28;20834;-77
2022/10/15 09:19:56;;;;;;;9.30;4.60;;;17.00;99.90;;;;;;5082786;28;20520;-75
2022/10/15 09:22:25;;;;;;;5.10;3.40;;;17.00;99.90;;;;;;5080395;28;20475;-75
2022/10/15 09:24:52;;;;;;;5.43;3.40;;;16.90;99.90;;;;;;5084920;28;20796;-78
2022/10/15 09:27:25;;;;;;;4.67;3.03;;;17.00;99.90;;;;;;5081679;28;20439;-76
2022/10/15 09:30:03;;;;;;;4.50;2.60;;;17.90;99.90;;;;;;5085195;28;20479;-75
2022/10/15 09:32:42;;;;;;;3.13;2.60;;;17.00;99.90;;;;;;5085479;28;20553;-74
2022/10/15 09:35:25;;;;;;;6.27;3.10;;;17.00;99.90;;;;;;5081707;28;20512;-75
2022/10/15 09:38:20;;;;;;;3.30;2.87;;;17.00;99.90;;;;;;5086039;28;20469;-74
2022/10/15 09:40:57;;;;;;;4.73;3.53;;;17.00;99.90;;;;;;5076839;28;20486;-76
2022/10/15 09:43:30;;;;;;;9.77;5.20;;;16.90;99.90;;;;;;5078392;28;20951;-74
2022/10/15 09:45:56;;;;;;;4.50;2.60;;;17.00;99.90;;;;;;5082086;28;20762;-74
2022/10/15 09:48:24;;;;;;;4.50;2.67;;;17.00;99.90;;;;;;5083336;28;20423;-74
2022/10/15 09:51:01;;;;;;;3.20;2.80;;;17.10;99.90;;;;;;5082902;28;20650;-75
2022/10/15 09:53:58;;;;;;;4.43;2.80;;;17.10;99.90;;;;;;5087414;28;21177;-74
2022/10/15 09:56:34;;;;;;;6.40;2.70;;;17.10;99.90;;;;;;5071407;28;20431;-74
2022/10/15 09:58:59;;;;;;;8.30;2.60;;;17.10;99.90;;;;;;5086157;28;20417;-74
2022/10/15 10:01:28;;;;;;;2.30;2.10;;;17.20;99.90;;;;;;5081537;28;20434;-75
2022/10/15 10:04:15;;;;;;;8.10;2.10;;;17.20;99.90;;;;;;5085306;28;20179;-74
2022/10/15 10:06:55;;;;;;;2.90;2.13;;;17.30;99.90;;;;;;5086609;28;20433;-74
2022/10/15 10:09:26;;;;;;;4.50;2.10;;;17.30;99.90;;;;;;5080532;28;20415;-75
2022/10/15 10:11:56;;;;;;;3.73;2.67;;;17.40;99.90;;;;;;5080248;28;20487;-75
2022/10/15 10:14:39;;;;;;;6.63;1.80;;;17.50;99.90;;;;;;5079835;28;20426;-76
2022/10/15 10:17:10;;;;;;;14.20;7.60;;;17.40;99.90;;;;;;5080509;28;20918;-76
2022/10/15 10:19:37;;;;;;;5.30;3.70;;;17.50;99.90;;;;;;5084967;28;20527;-75
2022/10/15 10:22:43;;;;;;;5.30;2.27;;;17.60;99.90;;;;;;5075918;28;20441;-74
2022/10/15 10:25:38;;;;;;;5.80;2.33;;;17.70;99.90;;;;;;5076223;28;20441;-74
2022/10/15 10:28:13;;;;;;;2.93;1.60;;;17.80;99.90;;;;;;5086605;28;20464;-77
2022/10/15 10:31:02;;;;;;;5.43;1.80;;;17.80;99.60;;;;;;5083863;28;20480;-76
2022/10/15 10:33:47;;;;;;;4.03;2.30;;;17.90;99.50;;;;;;5082789;28;20511;-74
2022/10/15 10:36:32;;;;;;;5.43;2.60;;;18.00;97.10;;;;;;5081040;28;20920;-74
2022/10/15 10:39:13;;;;;;;2.00;1.60;;;18.20;94.80;;;;;;5084168;28;20425;-74
2022/10/15 10:41:52;;;;;;;5.53;1.87;;;18.50;91.30;;;;;;5087385;28;20888;-74
2022/10/15 10:44:32;;;;;;;6.40;1.70;;;18.70;86.40;;;;;;5078003;28;20812;-75
2022/10/15 10:47:09;;;;;;;2.70;1.90;;;19.10;74.80;;;;;;5091638;28;20932;-76
2022/10/15 10:49:48;;;;;;;3.60;2.33;;;19.70;59.10;;;;;;5084580;28;20770;-76
2022/10/15 10:52:35;;;;;;;3.33;2.10;;;20.40;46.80;;;;;;5089763;28;20503;-76
2022/10/15 10:55:17;;;;;;;8.03;2.40;;;20.80;47.00;;;;;;5077556;28;20429;-76
2022/10/15 10:58:03;;;;;;;3.10;2.30;;;20.50;15.80;;;;;;5088574;28;20863;-74
2022/10/15 11:00:38;;;;;;;11.27;4.77;;;20.20;25.50;;;;;;5092669;28;20421;-75
2022/10/15 11:03:05;;;;;;;7.53;5.33;;;20.30;35.30;;;;;;5089134;28;20441;-75
2022/10/15 11:05:33;;;;;;;4.90;3.50;;;20.70;29.40;;;;;;5087867;28;20501;-75
2022/10/15 11:08:24;;;;;;;7.80;4.73;;;21.40;24.00;;;;;;5079596;28;20834;-75
2022/10/15 11:11:03;;;;;;;3.00;1.90;;;21.30;2.40;;;;;;5084540;28;20445;-75
2022/10/15 11:13:46;;;;;;;4.60;2.10;;;20.60;7.00;;;;;;5083003;28;20940;-75
2022/10/15 11:16:28;;;;;;;4.90;2.67;;;20.00;16.40;;;;;;5083260;28;20508;-75
2022/10/15 11:19:12;;;;;;;3.40;2.03;;;19.60;25.40;;;;;;5085528;28;20488;-76
2022/10/15 11:21:45;;;;;;;4.37;2.50;;;19.30;29.20;;;;;;5080944;28;20529;-79
2022/10/15 11:24:18;;;;;;;2.40;1.87;;;19.30;31.90;;;;;;5092569;28;20557;-78
2022/10/15 11:27:04;;;;;;;4.47;2.20;;;19.30;45.80;;;;;;5092240;28;20884;-77
2022/10/15 11:29:56;;;;;;;2.53;1.80;;;19.40;38.30;;;;;;5089116;28;20448;-76
2022/10/15 11:32:42;;;;;;;2.63;2.03;;;19.20;37.60;;;;;;5086345;28;20488;-76
2022/10/15 11:35:18;;;;;;;3.80;1.77;;;19.10;45.60;;;;;;5066716;28;20426;-75
2022/10/15 11:37:50;;;;;;;3.93;2.10;;;18.90;45.40;;;;;;5079413;28;20429;-75
2022/10/15 11:40:37;;;;;;;6.17;1.53;;;18.90;45.50;;;;;;5078618;28;21044;-74
2022/10/15 11:43:26;;;;;;;2.80;1.57;;;18.70;45.30;;;;;;5087185;28;20496;-76
2022/10/15 11:46:10;;;;;;;3.42;1.60;;;18.70;45.30;;;;;;5094211;28;20426;-74
2022/10/15 11:48:56;;;;;;;2.60;1.40;;;18.60;46.40;;;;;;5112038;28;20181;-74
2022/10/15 11:51:38;;;;;;;2.47;1.40;;;18.60;45.10;;;;;;5090785;28;20944;-74
2022/10/15 11:54:28;;;;;;;3.40;1.40;;;18.50;45.10;;;;;;5073750;28;20465;-75
2022/10/15 11:56:58;;;;;;;3.00;1.40;;;18.30;44.40;;;;;;5088412;28;20437;-77
2022/10/15 11:59:30;;;;;;;4.50;1.70;;;18.30;45.00;;;;;;5086004;28;20711;-74
2022/10/15 12:02:02;;;;;;;4.00;1.83;;;18.30;45.00;;;;;;5086932;28;20521;-73
2022/10/15 12:04:48;;;;;;;2.90;1.30;;;18.40;45.20;;;;;;5082001;28;20430;-75
2022/10/15 12:07:24;;;;;;;3.10;1.67;;;18.50;35.30;;;;;;5082632;28;20532;-77
2022/10/15 12:09:54;;;;;;;2.40;1.57;;;18.50;43.80;;;;;;5074226;28;20453;-75
2022/10/15 12:12:36;;;;;;;2.70;1.70;;;18.60;43.00;;;;;;5086738;28;21059;-74
2022/10/15 12:15:33;;;;;;;5.80;1.60;;;18.60;36.40;;;;;;5085916;28;20429;-74
2022/10/15 12:18:19;;;;;;;6.33;1.60;;;18.70;29.30;;;;;;5088696;28;20785;-74
2022/10/15 12:20:45;;;;;;;2.33;1.50;;;18.50;31.50;;;;;;5089765;28;20453;-74
2022/10/15 12:23:35;;;;;;;4.47;2.07;;;18.50;32.40;;;;;;5078781;28;20453;-76
2022/10/15 12:26:01;;;;;;;2.60;1.80;;;18.40;39.70;;;;;;5082882;28;20602;-75
2022/10/15 12:28:30;;;;;;;2.90;1.70;;;18.30;38.80;;;;;;5083028;28;20504;-77
2022/10/15 12:30:56;;;;;;;5.27;2.13;;;18.30;44.90;;;;;;5088884;28;20559;-75
2022/10/15 12:33:35;;;;;;;5.10;1.60;;;18.30;44.70;;;;;;5079709;28;20680;-74
2022/10/15 12:36:19;;;;;;;3.50;1.40;;;18.30;45.00;;;;;;5081561;28;20404;-74
2022/10/15 12:38:56;;;;;;;5.40;1.67;;;18.40;45.00;;;;;;5071091;28;20458;-74
2022/10/15 12:41:34;;;;;;;4.87;2.07;;;18.40;44.40;;;;;;5078934;28;20437;-75
2022/10/15 12:44:07;;;;;;;4.10;1.60;;;18.40;41.40;;;;;;5078767;28;20512;-74
2022/10/15 12:46:38;;;;;;;3.23;1.80;;;18.50;44.60;;;;;;5085494;28;20422;-74
2022/10/15 12:49:25;;;;;;;4.73;1.67;;;18.50;27.30;;;;;;5084623;28;20430;-75
2022/10/15 12:51:52;;;;;;;2.83;1.53;;;18.50;24.80;;;;;;5085875;28;20593;-74
2022/10/15 12:54:40;;;;;;;2.43;1.70;;;18.60;21.70;;;;;;5089287;28;20896;-74
2022/10/15 12:57:30;;;;;;;4.13;1.77;;;18.60;22.60;;;;;;5086397;28;20505;-75
2022/10/15 12:59:58;;;;;;;2.10;1.43;;;18.50;21.50;;;;;;5089615;28;20433;-75
2022/10/15 13:02:42;;;;;;;3.57;1.80;;;18.60;21.80;;;;;;5081165;28;20507;-74
2022/10/15 13:05:22;;;;;;;6.30;2.10;;;18.60;21.10;;;;;;5073183;28;20512;-74
2022/10/15 13:07:49;;;;;;;3.90;1.80;;;18.60;21.90;;;;;;5082553;28;20487;-73